Time;durP1;ratioP1;P1;durP2;ratioP2;P2;SDS_P1;SDS_P2;PMS_P1;PMS_P2;Temp;Humidity;BMP_temperature;BMP_pressure;BME280_temperature;BME280_humidity;BME280_pressure;Samples;Min_cycle;Max_cycle;Signal;HPM_P1;HPM_P2
2021/01/08 00:01:20;;;;;;;12.85;6.60;;;;;;;2.16;72.53;99590.81;3822349;23;20083;-81
2021/01/08 00:02:52;;;;;;;11.20;5.97;;;;;;;2.11;72.77;99582.38;3819328;23;20049;-79
2021/01/08 00:04:25;;;;;;;12.25;6.47;;;;;;;2.18;72.78;99582.81;3821224;23;20506;-80
2021/01/08 00:05:56;;;;;;;12.27;6.40;;;;;;;2.24;72.46;99595.59;3818286;23;20025;-82
2021/01/08 00:07:27;;;;;;;12.05;6.63;;;;;;;2.32;72.30;99587.16;3822293;23;20061;-85
2021/01/08 00:08:59;;;;;;;13.82;6.82;;;;;;;2.23;72.32;99585.13;3820089;23;20026;-78
2021/01/08 00:10:30;;;;;;;11.02;6.38;;;;;;;2.25;72.51;99585.88;3822151;23;20022;-78
2021/01/08 00:12:01;;;;;;;;;;;;;;;2.18;72.53;99588.94;3821471;23;20035;-81
2021/01/08 00:13:33;;;;;;;11.75;6.25;;;;;;;2.23;72.29;99586.00;3822995;23;20498;-77
2021/01/08 00:15:05;;;;;;;12.27;6.18;;;;;;;2.20;72.40;99583.56;3820376;23;20048;-80
2021/01/08 00:16:36;;;;;;;12.73;6.65;;;;;;;2.19;72.37;99573.94;3822002;23;20463;-82
2021/01/08 00:18:08;;;;;;;11.00;5.80;;;;;;;2.16;72.61;99576.81;3819965;23;20025;-81
2021/01/08 00:19:39;;;;;;;11.98;6.68;;;;;;;2.20;72.30;99575.63;3822856;23;20022;-80
2021/01/08 00:21:10;;;;;;;;;;;;;;;2.13;72.52;99584.91;3820205;23;20358;-83
2021/01/08 00:22:41;;;;;;;12.38;5.93;;;;;;;2.19;72.37;99579.22;3824855;23;19916;-82
2021/01/08 00:24:13;;;;;;;10.68;5.60;;;;;;;2.24;72.15;99581.56;3820915;23;20025;-81
2021/01/08 00:25:51;;;;;;;10.27;5.53;;;;;;;2.25;72.02;99575.34;3819841;23;20023;-82
2021/01/08 00:27:23;;;;;;;11.23;6.55;;;;;;;2.25;72.24;99584.09;3820930;23;20336;-79
2021/01/08 00:28:54;;;;;;;12.73;6.88;;;;;;;2.23;72.23;99580.72;3819873;23;20025;-81
2021/01/08 00:30:25;;;;;;;;;;;;;;;2.18;72.51;99578.38;3824303;23;20036;-79
2021/01/08 00:31:55;;;;;;;7.93;4.45;;;;;;;2.35;72.09;99581.69;3820544;23;19916;-80
2021/01/08 00:33:27;;;;;;;;;;;;;;;2.21;72.23;99577.34;3826446;23;20079;-79
2021/01/08 00:34:58;;;;;;;11.35;6.43;;;;;;;2.24;72.45;99579.78;3822437;23;19936;-79
2021/01/08 00:36:29;;;;;;;14.85;7.65;;;;;;;2.29;72.26;99575.03;3823847;23;20025;-80
2021/01/08 00:38:00;;;;;;;;;;;;;;;2.18;72.53;99577.53;3822270;23;20474;-80
2021/01/08 00:39:31;;;;;;;11.45;6.97;;;;;;;2.18;72.74;99582.81;3824080;23;20491;-80
2021/01/08 00:41:03;;;;;;;14.30;7.50;;;;;;;2.21;72.66;99581.78;3823039;23;20096;-77
2021/01/08 00:42:34;;;;;;;13.55;6.78;;;;;;;2.24;72.57;99579.78;3824561;23;20026;-81
2021/01/08 00:44:06;;;;;;;11.00;6.72;;;;;;;2.23;72.57;99577.22;3822297;23;20069;-79
2021/01/08 00:45:37;;;;;;;12.63;7.13;;;;;;;2.17;72.81;99583.78;3823691;23;20413;-81
2021/01/08 00:47:08;;;;;;;13.50;6.90;;;;;;;2.22;72.80;99581.66;3820425;23;20036;-79
2021/01/08 00:48:39;;;;;;;14.88;8.10;;;;;;;2.23;72.85;99580.72;3822867;23;20053;-80
2021/01/08 00:50:12;;;;;;;12.95;6.93;;;;;;;2.26;73.02;99577.03;3820692;23;20029;-80
2021/01/08 00:51:43;;;;;;;15.85;7.43;;;;;;;2.25;73.22;99576.19;3825180;23;20025;-82
2021/01/08 00:53:14;;;;;;;13.98;6.82;;;;;;;2.25;73.06;99577.97;3820753;23;20017;-82
2021/01/08 00:54:48;;;;;;;13.32;7.20;;;;;;;2.25;73.09;99573.56;3823579;23;20022;-85
2021/01/08 00:56:20;;;;;;;12.52;7.20;;;;;;;2.25;73.09;99572.69;3821487;23;20017;-81
2021/01/08 00:57:51;;;;;;;12.18;6.75;;;;;;;2.25;73.22;99568.28;3824689;23;20025;-83
2021/01/08 00:59:22;;;;;;;14.93;6.68;;;;;;;2.30;73.12;99576.72;3823821;23;20021;-79
2021/01/08 01:00:53;;;;;;;11.77;6.03;;;;;;;2.39;72.91;99571.75;3823142;23;20029;-85
2021/01/08 01:02:25;;;;;;;13.32;6.72;;;;;;;2.28;72.87;99569.84;3823435;23;20026;-78
2021/01/08 01:03:56;;;;;;;13.43;7.30;;;;;;;2.28;72.91;99577.78;3823120;23;20025;-77
2021/01/08 01:05:27;;;;;;;11.52;6.25;;;;;;;2.26;72.86;99583.16;3822044;23;20025;-77
2021/01/08 01:06:58;;;;;;;12.38;6.65;;;;;;;2.25;72.73;99585.88;3828431;23;20033;-80
2021/01/08 01:08:29;;;;;;;10.70;5.65;;;;;;;2.31;72.68;99582.84;3831959;23;20017;-76
2021/01/08 01:10:03;;;;;;;;;;;;;;;2.17;73.18;99589.88;3828579;23;20025;-80
2021/01/08 01:11:35;;;;;;;14.13;7.40;;;;;;;2.27;72.64;99579.53;3817713;23;19917;-78
2021/01/08 01:13:07;;;;;;;14.52;6.97;;;;;;;2.22;72.60;99579.03;3822170;23;20026;-79
2021/01/08 01:14:40;;;;;;;12.57;6.70;;;;;;;2.19;72.40;99584.50;3819279;23;20029;-79
2021/01/08 01:16:12;;;;;;;12.27;6.57;;;;;;;2.17;72.57;99586.41;3821024;23;20018;-82
2021/01/08 01:17:43;;;;;;;12.65;6.45;;;;;;;2.17;72.23;99586.41;3819345;23;20032;-81
2021/01/08 01:19:15;;;;;;;12.52;6.30;;;;;;;2.17;72.03;99587.25;3821298;23;20022;-81
2021/01/08 01:20:45;;;;;;;12.25;6.85;;;;;;;2.19;71.75;99584.50;3820069;23;20048;-79
2021/01/08 01:22:16;;;;;;;;;;;;;;;2.08;71.58;99585.22;3824076;23;20021;-79
2021/01/08 01:23:48;;;;;;;10.80;5.40;;;;;;;2.13;71.72;99584.91;3822725;23;19924;-80
2021/01/08 01:25:20;;;;;;;10.00;5.10;;;;;;;2.20;71.47;99590.63;3820340;23;20032;-81
2021/01/08 01:26:55;;;;;;;10.93;6.00;;;;;;;2.21;71.39;99582.59;3818184;23;20439;-84
2021/01/08 01:28:26;;;;;;;11.48;5.88;;;;;;;2.23;71.40;99586.00;3823319;23;20021;-81
2021/01/08 01:29:57;;;;;;;12.27;6.13;;;;;;;2.21;71.43;99587.88;3819407;23;20454;-82
2021/01/08 01:31:29;;;;;;;10.48;5.90;;;;;;;2.17;71.54;99586.41;3821452;23;20029;-79
2021/01/08 01:32:59;;;;;;;12.90;5.85;;;;;;;2.19;71.50;99589.78;3820134;23;20104;-79
2021/01/08 01:34:30;;;;;;;;;;;;;;;2.10;71.57;99585.97;3824661;23;20455;-85
2021/01/08 01:36:05;;;;;;;10.48;4.50;;;;;;;2.16;71.47;99590.00;3819098;23;19917;-78
2021/01/08 01:37:36;;;;;;;10.57;5.30;;;;;;;2.20;71.13;99586.19;3820453;23;20464;-80
2021/01/08 01:39:07;;;;;;;11.63;5.57;;;;;;;2.20;71.05;99595.91;3819043;23;20026;-80
2021/01/08 01:40:40;;;;;;;11.15;5.60;;;;;;;2.26;71.16;99593.72;3823263;23;20061;-80
2021/01/08 01:42:11;;;;;;;9.07;4.85;;;;;;;2.22;70.94;99594.84;3823083;23;20370;-78
2021/01/08 01:43:43;;;;;;;10.68;5.90;;;;;;;2.22;70.87;99602.75;3827200;23;20355;-83
2021/01/08 01:45:14;;;;;;;12.55;6.10;;;;;;;2.22;70.66;99594.84;3821537;23;20056;-78
2021/01/08 01:46:46;;;;;;;11.38;5.78;;;;;;;2.20;70.82;99602.00;3824015;23;20078;-79
2021/01/08 01:48:17;;;;;;;15.52;5.90;;;;;;;2.18;70.73;99598.63;3824910;23;20033;-78
2021/01/08 01:49:48;;;;;;;9.77;5.13;;;;;;;2.18;70.77;99598.63;3835027;23;20029;-79
2021/01/08 01:51:33;;;;;;;;;;;;;;;2.13;70.74;99600.75;3821281;23;20034;-79
2021/01/08 01:53:04;;;;;;;10.25;5.28;;;;;;;2.18;70.70;99596.84;3823912;23;20289;-86
2021/01/08 01:54:36;;;;;;;9.38;5.55;;;;;;;2.16;70.62;99604.00;3820848;23;20104;-80
2021/01/08 01:56:09;;;;;;;10.02;5.63;;;;;;;2.11;70.17;99600.00;3818842;23;20026;-79
2021/01/08 01:57:40;;;;;;;12.45;6.22;;;;;;;2.09;70.67;99593.97;3821677;23;20044;-83
2021/01/08 01:59:11;;;;;;;;;;;;;;;1.97;70.85;99596.50;3816717;23;20766;-83
2021/01/08 02:00:42;;;;;;;9.82;5.35;;;;;;;2.02;70.79;99599.66;3821386;23;20280;-83
2021/01/08 02:02:21;;;;;;;10.80;5.32;;;;;;;2.14;70.45;99597.16;3817943;23;20056;-79
2021/01/08 02:03:57;;;;;;;9.32;5.05;;;;;;;2.19;70.48;99597.69;3825911;23;20029;-78
2021/01/08 02:05:29;;;;;;;11.52;6.00;;;;;;;2.19;70.36;99595.03;3828364;23;20031;-76
2021/01/08 02:07:02;;;;;;;11.20;6.00;;;;;;;2.17;70.35;99603.06;3826916;23;20086;-83
2021/01/08 02:08:34;;;;;;;11.05;4.93;;;;;;;2.23;70.22;99593.91;3823242;23;20025;-80
2021/01/08 02:10:07;;;;;;;10.25;4.88;;;;;;;2.30;70.14;99603.09;3824635;23;20022;-81
2021/01/08 02:11:43;;;;;;;10.75;5.47;;;;;;;2.32;70.06;99595.06;3821859;23;20104;-77
2021/01/08 02:13:22;;;;;;;11.07;4.65;;;;;;;2.36;69.83;99590.47;3820389;23;20028;-80
2021/01/08 02:14:55;;;;;;;10.68;4.97;;;;;;;2.29;69.91;99587.38;3819092;23;20037;-78
2021/01/08 02:16:29;;;;;;;10.23;5.40;;;;;;;2.31;69.86;99588.97;3820897;23;20053;-79
2021/01/08 02:18:02;;;;;;;10.57;5.15;;;;;;;2.28;69.86;99598.88;3820283;23;20022;-82
2021/01/08 02:19:41;;;;;;;7.78;4.38;;;;;;;2.27;69.86;99598.00;3824897;23;20070;-79
2021/01/08 02:21:18;;;;;;;11.52;5.93;;;;;;;2.23;69.71;99601.81;3822537;23;20052;-79
2021/01/08 02:22:55;;;;;;;11.15;5.18;;;;;;;2.22;69.86;99594.03;3824974;23;20028;-82
2021/01/08 02:24:36;;;;;;;11.10;4.85;;;;;;;2.23;69.85;99591.28;3825882;23;20021;-84
2021/01/08 02:26:12;;;;;;;9.95;4.65;;;;;;;2.23;69.72;99590.41;3824798;23;20025;-79
2021/01/08 02:28:06;;;;;;;9.45;4.55;;;;;;;2.27;69.57;99592.75;3827461;23;20029;-82
2021/01/08 02:29:38;;;;;;;9.25;4.78;;;;;;;2.22;69.99;99594.03;3819747;23;20018;-83
2021/01/08 02:31:10;;;;;;;10.77;4.80;;;;;;;2.27;69.66;99591.91;3821489;23;20022;-82
2021/01/08 02:32:42;;;;;;;10.60;4.82;;;;;;;2.24;69.65;99592.09;3817611;23;20076;-85
2021/01/08 02:34:13;;;;;;;11.50;4.95;;;;;;;2.27;69.65;99592.75;3821821;23;20021;-79
2021/01/08 02:35:48;;;;;;;11.55;4.93;;;;;;;2.15;69.57;99590.94;3819234;23;20112;-78
2021/01/08 02:37:20;;;;;;;10.30;5.25;;;;;;;2.13;69.83;99587.56;3821232;23;20375;-77
2021/01/08 02:38:51;;;;;;;9.90;5.35;;;;;;;2.08;69.96;99590.50;3818581;23;20363;-80
2021/01/08 02:40:22;;;;;;;9.55;4.57;;;;;;;2.16;69.83;99585.56;3820901;23;20033;-77
2021/01/08 02:41:55;;;;;;;;;;;;;;;2.11;69.89;99592.06;3817525;23;20028;-79
2021/01/08 02:43:27;;;;;;;12.20;5.13;;;;;;;2.13;69.84;99593.66;3820395;23;19936;-79
2021/01/08 02:44:59;;;;;;;10.05;4.47;;;;;;;2.18;70.02;99588.06;3815918;23;20032;-82
2021/01/08 02:46:30;;;;;;;10.05;4.40;;;;;;;2.16;70.27;99587.34;3817828;23;20022;-81
2021/01/08 02:48:01;;;;;;;9.35;4.75;;;;;;;2.14;70.17;99589.25;3818337;23;20021;-79
2021/01/08 02:49:33;;;;;;;11.77;5.97;;;;;;;2.07;70.43;99580.88;3819941;23;20051;-79
2021/01/08 02:51:04;;;;;;;13.07;5.47;;;;;;;2.06;70.67;99583.63;3817984;23;20021;-79
2021/01/08 02:52:38;;;;;;;;;;;;;;;1.93;71.50;99586.25;3820343;23;20117;-82
2021/01/08 02:54:10;;;;;;;12.68;5.45;;;;;;;1.99;71.03;99593.75;3818337;23;20337;-82
2021/01/08 02:55:49;;;;;;;9.90;4.85;;;;;;;1.97;70.95;99585.06;3821880;23;20036;-77
2021/01/08 02:57:22;;;;;;;12.65;6.10;;;;;;;2.00;71.16;99595.44;3818485;23;20068;-81
2021/01/08 02:58:55;;;;;;;10.73;5.15;;;;;;;1.98;71.48;99592.91;3817328;23;20025;-81
2021/01/08 03:00:29;;;;;;;10.73;4.88;;;;;;;2.06;71.34;99592.38;3818506;23;20355;-80
2021/01/08 03:02:01;;;;;;;9.65;5.10;;;;;;;2.11;71.47;99585.03;3820221;23;20021;-83
2021/01/08 03:03:34;;;;;;;11.18;5.32;;;;;;;2.06;71.75;99591.56;3828585;23;20080;-82
2021/01/08 03:05:06;;;;;;;13.25;6.35;;;;;;;1.97;71.98;99590.34;3826556;23;20025;-82
2021/01/08 03:06:40;;;;;;;11.75;5.15;;;;;;;1.96;72.40;99593.94;3831422;23;20045;-84
2021/01/08 03:08:12;;;;;;;11.57;6.05;;;;;;;1.95;72.85;99587.81;3820902;23;20029;-79
2021/01/08 03:09:43;;;;;;;10.68;5.72;;;;;;;1.98;72.88;99585.00;3820956;23;20410;-79
2021/01/08 03:11:15;;;;;;;11.10;6.03;;;;;;;1.94;73.22;99582.63;3817226;23;20074;-81
2021/01/08 03:12:57;;;;;;;11.23;5.40;;;;;;;1.94;73.42;99586.13;3821589;23;20025;-78
2021/01/08 03:14:29;;;;;;;10.68;6.03;;;;;;;1.99;73.23;99584.03;3821078;23;20017;-78
2021/01/08 03:15:59;;;;;;;10.90;5.80;;;;;;;2.06;73.12;99581.84;3823243;23;20025;-79
2021/01/08 03:17:30;;;;;;;;;;;;;;;1.95;73.59;99581.69;3821127;23;20072;-80
2021/01/08 03:19:02;;;;;;;12.30;5.95;;;;;;;1.90;73.28;99579.34;3820689;23;19939;-79
2021/01/08 03:20:33;;;;;;;12.48;6.80;;;;;;;1.89;73.66;99580.31;3821818;23;20028;-80
2021/01/08 03:22:04;;;;;;;14.63;7.63;;;;;;;1.87;73.62;99574.31;3820011;23;20030;-82
2021/01/08 03:23:35;;;;;;;;;;;;;;;1.79;73.97;99581.88;3819251;23;20028;-80
2021/01/08 03:25:08;;;;;;;11.68;5.93;;;;;;;1.79;73.89;99582.72;3826956;23;19956;-76
2021/01/08 03:26:40;;;;;;;14.90;6.80;;;;;;;1.78;74.04;99573.09;3827704;23;20021;-79
2021/01/08 03:28:13;;;;;;;12.88;6.30;;;;;;;1.79;74.05;99577.44;3828093;23;20153;-80
2021/01/08 03:29:44;;;;;;;12.95;7.05;;;;;;;1.74;74.26;99573.41;3822664;23;20025;-80
2021/01/08 03:31:15;;;;;;;12.70;6.45;;;;;;;1.77;74.21;99581.13;3823715;23;20076;-82
2021/01/08 03:32:46;;;;;;;11.80;6.55;;;;;;;1.77;74.28;99581.13;3820828;23;20184;-77
2021/01/08 03:34:17;;;;;;;13.25;6.70;;;;;;;1.83;74.15;99570.16;3823532;23;20021;-79
2021/01/08 03:35:48;;;;;;;;;;;;;;;1.70;74.66;99573.59;3820907;23;20513;-82
2021/01/08 03:37:19;;;;;;;14.90;7.07;;;;;;;1.75;74.63;99575.09;3823728;23;19966;-81
2021/01/08 03:38:50;;;;;;;13.02;6.97;;;;;;;1.77;74.63;99567.94;3819406;23;20056;-81
2021/01/08 03:40:21;;;;;;;18.17;7.75;;;;;;;1.80;74.55;99573.84;3822127;23;20033;-81
2021/01/08 03:41:52;;;;;;;15.13;7.40;;;;;;;1.82;74.64;99571.97;3823053;23;20022;-82
2021/01/08 03:43:27;;;;;;;;;;;;;;;1.81;74.67;99572.06;3827871;23;20025;-81
2021/01/08 03:45:11;;;;;;;14.55;6.65;;;;;;;1.81;74.71;99577.31;3825642;23;20484;-82
2021/01/08 03:46:55;;;;;;;12.60;7.38;;;;;;;1.81;74.63;99569.41;3827230;23;20045;-79
2021/01/08 03:48:28;;;;;;;14.32;6.80;;;;;;;1.83;74.75;99573.66;3824600;23;20040;-79
2021/01/08 03:49:59;;;;;;;14.80;7.03;;;;;;;1.81;74.94;99572.06;3823718;23;20033;-82
2021/01/08 03:51:30;;;;;;;12.15;6.68;;;;;;;1.83;74.82;99572.81;3823679;23;20026;-82
2021/01/08 03:53:01;;;;;;;;;;;;;;;1.77;75.04;99573.22;3825073;23;20032;-80
2021/01/08 03:54:32;;;;;;;12.95;6.55;;;;;;;1.81;75.20;99569.41;3827259;23;19917;-80
2021/01/08 03:56:03;;;;;;;;;;;;;;;1.78;74.81;99567.84;3825726;23;20048;-78
2021/01/08 03:57:34;;;;;;;16.38;7.50;;;;;;;1.81;74.87;99561.50;3827264;23;19994;-78
2021/01/08 03:59:07;;;;;;;14.93;7.45;;;;;;;1.84;74.87;99569.22;3823156;23;20025;-76
2021/01/08 04:00:38;;;;;;;14.27;7.35;;;;;;;1.82;75.21;99561.44;3828483;23;20017;-80
2021/01/08 04:02:09;;;;;;;13.05;7.22;;;;;;;1.90;75.03;99562.72;3822556;23;20040;-79
2021/01/08 04:03:42;;;;;;;17.73;7.90;;;;;;;1.91;75.04;99557.31;3827337;23;20059;-79
2021/01/08 04:05:14;;;;;;;12.57;6.88;;;;;;;1.93;74.93;99565.97;3821993;23;20056;-76
2021/01/08 04:06:47;;;;;;;18.48;7.68;;;;;;;1.94;74.90;99565.03;3825207;23;20045;-82
2021/01/08 04:08:18;;;;;;;12.90;6.80;;;;;;;1.91;75.13;99559.13;3822380;23;20359;-78
2021/01/08 04:09:50;;;;;;;15.98;7.95;;;;;;;1.93;74.99;99563.34;3823393;23;20029;-80
2021/01/08 04:11:20;;;;;;;16.75;8.32;;;;;;;1.88;75.09;99560.19;3819550;23;20029;-80
2021/01/08 04:12:52;;;;;;;;;;;;;;;1.79;75.24;99560.78;3826340;23;20021;-76
2021/01/08 04:14:24;;;;;;;13.35;8.05;;;;;;;1.80;75.29;99559.81;3823107;23;19920;-77
2021/01/08 04:15:59;;;;;;;16.25;8.40;;;;;;;1.78;75.08;99559.09;3825679;23;20082;-83
2021/01/08 04:17:30;;;;;;;14.68;8.32;;;;;;;1.76;75.20;99556.53;3821926;23;20021;-82
2021/01/08 04:19:02;;;;;;;;;;;;;;;1.69;75.29;99558.75;3822717;23;20044;-82
2021/01/08 04:20:36;;;;;;;14.13;8.10;;;;;;;1.79;75.23;99561.63;3819301;23;19916;-78
2021/01/08 04:22:08;;;;;;;16.30;8.13;;;;;;;1.77;75.38;99557.41;3821220;23;20021;-80
2021/01/08 04:23:39;;;;;;;16.60;8.80;;;;;;;1.67;75.49;99552.72;3819363;23;20025;-80
2021/01/08 04:25:10;;;;;;;;;;;;;;;1.61;75.70;99557.53;3821461;23;20101;-80
2021/01/08 04:26:42;;;;;;;13.98;7.55;;;;;;;1.68;75.48;99558.84;3814913;23;19951;-81
2021/01/08 04:28:13;;;;;;;13.57;6.82;;;;;;;1.79;75.48;99555.53;3820922;23;20041;-77
2021/01/08 04:29:46;;;;;;;13.57;7.20;;;;;;;1.79;75.20;99558.16;3818039;23;20018;-81
2021/01/08 04:31:17;;;;;;;12.95;7.20;;;;;;;1.84;75.41;99556.03;3819784;23;20056;-79
2021/01/08 04:32:49;;;;;;;13.27;6.88;;;;;;;1.92;75.32;99552.91;3818237;23;20052;-79
2021/01/08 04:34:20;;;;;;;17.83;8.35;;;;;;;1.85;75.18;99550.66;3820484;23;20025;-79
2021/01/08 04:35:53;;;;;;;13.50;7.60;;;;;;;1.83;75.35;99560.50;3816455;23;20021;-81
2021/01/08 04:37:24;;;;;;;14.95;7.47;;;;;;;1.80;75.48;99557.19;3822953;23;20036;-83
2021/01/08 04:38:55;;;;;;;12.82;7.00;;;;;;;1.82;75.45;99550.03;3820905;23;20029;-79
2021/01/08 04:40:27;;;;;;;14.00;7.63;;;;;;;1.81;75.28;99545.69;3823625;23;20025;-80
2021/01/08 04:41:58;;;;;;;15.65;7.45;;;;;;;1.79;75.38;99556.34;3820720;23;20029;-80
2021/01/08 04:43:29;;;;;;;15.40;8.02;;;;;;;1.81;75.46;99549.19;3821481;23;20029;-79
2021/01/08 04:45:02;;;;;;;15.55;7.93;;;;;;;1.87;75.17;99547.94;3819692;23;20022;-75
2021/01/08 04:46:35;;;;;;;15.85;8.60;;;;;;;1.87;75.28;99547.94;3822884;23;20036;-77
2021/01/08 04:48:08;;;;;;;13.38;7.53;;;;;;;1.83;75.28;99541.16;3821534;23;20022;-83
2021/01/08 04:49:39;;;;;;;13.98;7.97;;;;;;;1.81;75.52;99550.97;3823356;23;20025;-80
2021/01/08 04:51:11;;;;;;;13.63;7.85;;;;;;;1.79;75.46;99544.97;3820926;23;20347;-80
2021/01/08 04:52:43;;;;;;;12.75;7.47;;;;;;;1.73;75.83;99543.59;3825039;23;20057;-82
2021/01/08 04:54:14;;;;;;;13.63;7.20;;;;;;;1.80;75.75;99557.19;3822049;23;20084;-78
2021/01/08 04:55:45;;;;;;;;;;;;;;;1.72;75.98;99552.44;3824865;23;20565;-84
2021/01/08 04:57:17;;;;;;;;;;;;;;;1.73;75.88;99556.75;3821083;23;19916;-82
2021/01/08 04:58:48;;;;;;;13.32;7.28;;;;;;;1.70;75.65;99556.94;3823636;23;19923;-80
2021/01/08 05:00:20;;;;;;;;;;;;;;;1.63;76.39;99553.03;3821407;23;20048;-81
2021/01/08 05:01:52;;;;;;;14.00;7.53;;;;;;;1.66;76.27;99556.31;3822911;23;19920;-78
2021/01/08 05:03:38;;;;;;;13.50;7.20;;;;;;;1.68;76.12;99550.94;3822642;23;20025;-78
2021/01/08 05:07:33;;;;;;;13.90;7.95;;;;;;;1.65;76.55;99554.63;3824995;23;20033;-80
2021/01/08 05:09:21;;;;;;;15.43;7.93;;;;;;;1.68;76.55;99559.69;3822254;23;20049;-79
2021/01/08 05:11:17;;;;;;;13.27;7.43;;;;;;;1.70;76.64;99552.50;3820070;23;20355;-80
2021/01/08 05:13:03;;;;;;;12.52;7.80;;;;;;;1.75;76.48;99554.00;3821299;23;20032;-81
2021/01/08 05:14:55;;;;;;;15.65;8.35;;;;;;;1.74;76.67;99552.31;3819605;23;20018;-82
2021/01/08 05:16:42;;;;;;;;;;;;;;;1.65;77.04;99549.34;3822650;23;20032;-79
2021/01/08 05:18:43;;;;;;;14.85;7.57;;;;;;;1.73;76.48;99548.84;3828300;23;19928;-78
2021/01/08 05:20:36;;;;;;;13.13;7.85;;;;;;;1.72;76.82;99544.53;3820944;23;20014;-77
2021/01/08 05:22:23;;;;;;;14.25;8.02;;;;;;;1.69;76.56;99553.47;3830247;23;20100;-82
2021/01/08 05:25:29;;;;;;;13.02;7.50;;;;;;;1.67;76.91;99542.19;3814874;23;20025;-79
2021/01/08 05:27:05;;;;;;;16.45;8.60;;;;;;;1.66;77.17;99539.63;3814836;23;20025;-79
2021/01/08 05:28:35;;;;;;;12.73;7.07;;;;;;;1.69;76.91;99542.06;3818467;23;20018;-79
2021/01/08 05:30:13;;;;;;;;;;;;;;;1.63;77.21;99543.31;3815405;23;20022;-79
2021/01/08 05:31:47;;;;;;;16.10;8.27;;;;;;;1.66;77.13;99547.53;3817865;23;19917;-78
2021/01/08 05:33:20;;;;;;;16.20;8.50;;;;;;;1.68;77.01;99543.88;3814989;23;20032;-79
2021/01/08 05:34:53;;;;;;;13.40;6.82;;;;;;;1.69;77.04;99550.84;3818780;23;20024;-79
2021/01/08 05:36:26;;;;;;;15.65;8.32;;;;;;;1.73;76.86;99545.34;3815514;23;20024;-79
2021/01/08 05:38:04;;;;;;;13.90;7.90;;;;;;;1.68;77.09;99541.25;3814912;23;20119;-79
2021/01/08 05:39:36;;;;;;;13.48;7.40;;;;;;;1.70;77.23;99541.13;3817570;23;20028;-79
2021/01/08 05:41:09;;;;;;;13.40;7.57;;;;;;;1.69;77.02;99542.94;3813512;23;20088;-79
2021/01/08 05:42:51;;;;;;;14.52;7.68;;;;;;;1.67;77.31;99542.19;3818914;23;20092;-78
2021/01/08 05:44:24;;;;;;;12.88;7.38;;;;;;;1.73;77.08;99548.84;3815170;23;20036;-79
2021/01/08 05:46:06;;;;;;;12.13;7.10;;;;;;;1.74;76.94;99547.91;3818492;23;20025;-79
2021/01/08 05:47:39;;;;;;;14.75;7.25;;;;;;;1.73;76.97;99545.34;3814343;23;20142;-79
2021/01/08 05:49:11;;;;;;;14.43;7.82;;;;;;;1.74;76.94;99553.19;3818411;23;20044;-79
2021/01/08 05:50:42;;;;;;;15.07;7.43;;;;;;;1.80;76.90;99549.28;3816569;23;20029;-79
2021/01/08 05:52:16;;;;;;;14.43;7.45;;;;;;;1.80;76.60;99547.50;3817504;23;20053;-79
2021/01/08 05:53:48;;;;;;;12.02;6.93;;;;;;;1.84;76.97;99553.41;3815714;23;20474;-79
2021/01/08 05:55:19;;;;;;;12.32;6.93;;;;;;;1.87;76.81;99553.22;3817428;23;20022;-79
2021/01/08 05:56:50;;;;;;;;;;;;;;;1.82;76.91;99550.03;3816563;23;20029;-79
2021/01/08 05:58:23;;;;;;;13.15;7.15;;;;;;;1.79;76.88;99558.97;3817951;23;19963;-79
2021/01/08 05:59:56;;;;;;;14.15;7.18;;;;;;;1.83;76.90;99547.31;3815629;23;20025;-79
2021/01/08 06:01:29;;;;;;;14.80;6.82;;;;;;;1.86;76.96;99556.78;3818496;23;20022;-79
2021/01/08 06:03:01;;;;;;;16.45;7.28;;;;;;;1.83;76.92;99551.72;3815215;23;20393;-79
2021/01/08 06:04:34;;;;;;;11.90;6.30;;;;;;;1.86;77.18;99556.78;3818598;23;20021;-79
2021/01/08 06:06:06;;;;;;;12.48;7.80;;;;;;;1.81;77.16;99556.25;3813965;23;20106;-79
2021/01/08 06:07:38;;;;;;;13.35;7.22;;;;;;;1.77;77.21;99558.22;3817885;23;20072;-79
2021/01/08 06:09:12;;;;;;;12.85;7.22;;;;;;;1.75;77.41;99554.00;3815223;23;20112;-79
2021/01/08 06:10:44;;;;;;;14.55;7.32;;;;;;;1.76;77.29;99555.72;3816658;23;20596;-79
2021/01/08 06:12:18;;;;;;;11.93;6.75;;;;;;;1.79;77.58;99558.16;3815199;23;20470;-77
2021/01/08 06:13:52;;;;;;;12.93;6.63;;;;;;;1.79;77.57;99560.78;3817083;23;20025;-80
2021/01/08 06:15:25;;;;;;;13.00;6.90;;;;;;;1.78;77.45;99559.09;3816602;23;20405;-79
2021/01/08 06:16:57;;;;;;;12.90;6.75;;;;;;;1.65;77.91;99556.41;3814461;23;20029;-79
2021/01/08 06:18:34;;;;;;;14.10;7.03;;;;;;;1.65;78.15;99559.06;3817128;23;20049;-79
2021/01/08 06:20:06;;;;;;;11.82;6.10;;;;;;;1.65;78.35;99554.63;3815221;23;20462;-79
2021/01/08 06:21:38;;;;;;;13.65;7.18;;;;;;;1.57;78.92;99556.91;3816729;23;20080;-79
2021/01/08 06:23:09;;;;;;;12.85;7.47;;;;;;;1.54;78.85;99557.97;3815508;23;20057;-78
2021/01/08 06:24:40;;;;;;;;;;;;;;;1.52;79.08;99564.25;3818163;23;20025;-79
2021/01/08 06:26:13;;;;;;;11.15;6.50;;;;;;;1.58;78.80;99553.34;3813257;23;19924;-79
2021/01/08 06:27:46;;;;;;;12.70;6.10;;;;;;;1.61;78.77;99562.81;3818816;23;20298;-79
2021/01/08 06:29:18;;;;;;;11.60;5.97;;;;;;;1.65;78.62;99559.06;3816531;23;20028;-79
2021/01/08 06:30:51;;;;;;;12.52;7.07;;;;;;;1.63;78.55;99561.78;3817920;23;20037;-78
2021/01/08 06:32:28;;;;;;;11.90;6.63;;;;;;;1.68;78.49;99566.75;3814607;23;20053;-79
2021/01/08 06:34:03;;;;;;;11.30;6.20;;;;;;;1.68;78.44;99559.69;3817244;23;20461;-79
2021/01/08 06:35:34;;;;;;;11.68;6.70;;;;;;;1.66;78.31;99558.94;3813967;23;20021;-78
2021/01/08 06:37:06;;;;;;;11.73;6.55;;;;;;;1.65;78.27;99559.88;3817881;23;20465;-79
2021/01/08 06:38:43;;;;;;;13.73;6.53;;;;;;;1.70;78.00;99556.94;3813561;23;20037;-79
2021/01/08 06:40:15;;;;;;;10.70;5.80;;;;;;;1.61;78.42;99563.66;3816957;23;20017;-80
2021/01/08 06:41:52;;;;;;;11.25;6.30;;;;;;;1.67;78.00;99565.91;3815655;23;20470;-79
2021/01/08 06:43:25;;;;;;;11.60;5.85;;;;;;;1.68;78.04;99569.38;3817532;23;20048;-79
2021/01/08 06:44:58;;;;;;;13.98;6.57;;;;;;;1.73;77.94;99576.97;3815478;23;20407;-79
2021/01/08 06:46:34;;;;;;;11.98;6.40;;;;;;;1.69;77.94;99571.94;3816606;23;20497;-80
2021/01/08 06:48:09;;;;;;;10.65;6.28;;;;;;;1.73;78.21;99567.31;3815493;23;20025;-79
2021/01/08 06:49:45;;;;;;;10.43;5.40;;;;;;;1.76;77.96;99572.34;3816766;23;20017;-79
2021/01/08 06:51:25;;;;;;;10.60;5.53;;;;;;;1.74;78.03;99578.69;3814760;23;20033;-79
2021/01/08 06:53:01;;;;;;;11.40;6.28;;;;;;;1.76;78.12;99572.34;3815337;23;20026;-79
2021/01/08 06:54:40;;;;;;;10.15;5.88;;;;;;;1.74;77.90;99573.41;3817783;23;20033;-79
2021/01/08 06:56:16;;;;;;;10.07;5.65;;;;;;;1.75;77.91;99577.72;3814968;23;20052;-80
2021/01/08 06:57:49;;;;;;;10.32;5.72;;;;;;;1.78;77.88;99575.75;3817363;23;20045;-79
2021/01/08 06:59:22;;;;;;;10.82;6.25;;;;;;;1.79;77.86;99574.81;3815459;23;20621;-79
2021/01/08 07:01:00;;;;;;;12.50;6.75;;;;;;;1.74;77.48;99581.31;3816819;23;20056;-79
2021/01/08 07:02:32;;;;;;;11.52;6.45;;;;;;;1.77;77.49;99578.50;3814446;23;20123;-78
2021/01/08 07:04:05;;;;;;;11.63;6.40;;;;;;;1.70;77.63;99580.66;3816714;23;20022;-78
2021/01/08 07:05:37;;;;;;;13.70;6.57;;;;;;;1.68;77.60;99578.16;3815001;23;20109;-79
2021/01/08 07:07:13;;;;;;;11.50;6.32;;;;;;;1.70;77.52;99578.88;3817099;23;20022;-79
2021/01/08 07:08:45;;;;;;;11.18;6.13;;;;;;;1.71;77.36;99585.00;3813657;23;20018;-79
2021/01/08 07:10:17;;;;;;;10.80;6.03;;;;;;;1.74;77.52;99583.94;3816859;23;20049;-79
2021/01/08 07:11:54;;;;;;;13.05;6.93;;;;;;;1.70;77.75;99591.22;3812670;23;20021;-78
2021/01/08 07:13:29;;;;;;;12.40;6.32;;;;;;;1.69;77.66;99593.00;3817357;23;20025;-79
2021/01/08 07:15:00;;;;;;;12.10;6.88;;;;;;;1.70;77.50;99601.75;3813739;23;20037;-79
2021/01/08 07:16:32;;;;;;;11.40;6.47;;;;;;;1.67;77.54;99587.00;3816833;23;20025;-79
2021/01/08 07:18:03;;;;;;;13.50;6.80;;;;;;;1.62;77.68;99588.22;3815308;23;20018;-78
2021/01/08 07:19:39;;;;;;;10.43;6.13;;;;;;;1.60;77.63;99588.34;3816777;23;20041;-79
2021/01/08 07:21:23;;;;;;;12.13;6.13;;;;;;;1.63;77.75;99596.03;3815413;23;20540;-79
2021/01/08 07:22:56;;;;;;;10.80;5.65;;;;;;;1.70;77.60;99597.31;3812166;23;20025;-79
2021/01/08 07:24:33;;;;;;;12.18;6.15;;;;;;;1.77;77.24;99589.03;3817410;23;20048;-79
2021/01/08 07:26:04;;;;;;;11.00;6.15;;;;;;;1.73;77.45;99598.06;3811403;23;20021;-79
2021/01/08 07:27:36;;;;;;;10.70;6.30;;;;;;;1.74;77.40;99597.13;3817455;23;20025;-79
2021/01/08 07:29:08;;;;;;;11.00;5.95;;;;;;;1.74;77.52;99599.75;3814712;23;20022;-79